createdAt,value
2023-05-13T00:00:08.350Z,8.60
2023-05-13T00:02:35.440Z,8.60
2023-05-13T00:05:02.418Z,8.60
2023-05-13T00:07:29.428Z,8.50
2023-05-13T00:09:56.641Z,8.50
2023-05-13T00:12:23.563Z,8.40
2023-05-13T00:14:50.613Z,8.30
2023-05-13T00:17:18.272Z,8.30
2023-05-13T00:19:45.201Z,8.20
2023-05-13T00:22:13.439Z,8.20
2023-05-13T00:24:40.527Z,8.20
2023-05-13T00:27:08.801Z,8.20
2023-05-13T00:29:36.174Z,8.20
2023-05-13T00:32:03.477Z,8.30
2023-05-13T00:34:30.481Z,8.20
2023-05-13T00:36:57.916Z,8.20
2023-05-13T00:39:24.967Z,8.20
2023-05-13T00:41:51.902Z,8.20
2023-05-13T00:44:18.835Z,8.20
2023-05-13T00:46:46.265Z,8.20
2023-05-13T00:49:13.334Z,8.20
2023-05-13T00:51:40.327Z,8.20
2023-05-13T00:54:07.277Z,8.10
2023-05-13T00:56:34.245Z,8.10
2023-05-13T00:59:01.238Z,8.10
2023-05-13T01:01:48.174Z,8.10
2023-05-13T01:04:37.934Z,8.20
2023-05-13T01:07:31.907Z,8.20
2023-05-13T01:10:17.357Z,8.20
2023-05-13T01:12:48.623Z,8.20
2023-05-13T01:15:23.595Z,8.20
2023-05-13T01:18:06.980Z,8.10
2023-05-13T01:20:34.706Z,8.10
2023-05-13T01:23:04.071Z,8.10
2023-05-13T01:25:31.648Z,8.10
2023-05-13T01:28:00.046Z,8.00
2023-05-13T01:30:28.099Z,8.10
2023-05-13T01:32:56.499Z,8.10
2023-05-13T01:35:24.648Z,8.10
2023-05-13T01:37:52.709Z,8.10
2023-05-13T01:40:31.724Z,8.10
2023-05-13T01:42:59.792Z,8.10
2023-05-13T01:45:30.959Z,8.10
2023-05-13T01:47:58.202Z,8.10
2023-05-13T01:50:26.955Z,8.10
2023-05-13T01:52:54.053Z,8.10
2023-05-13T01:55:21.135Z,8.00
2023-05-13T01:57:48.557Z,8.00
2023-05-13T02:00:16.082Z,8.00
2023-05-13T02:02:43.183Z,8.00
2023-05-13T02:05:10.330Z,8.00
2023-05-13T02:07:37.327Z,8.00
2023-05-13T02:10:04.567Z,8.00
2023-05-13T02:12:31.509Z,8.00
2023-05-13T02:14:58.459Z,8.00
2023-05-13T02:17:25.676Z,7.90
2023-05-13T02:19:52.759Z,7.90
2023-05-13T02:22:19.749Z,7.90
2023-05-13T02:24:46.744Z,7.90
2023-05-13T02:27:16.355Z,7.90
2023-05-13T02:29:43.379Z,7.90
2023-05-13T02:32:10.421Z,7.90
2023-05-13T02:34:37.892Z,7.90
2023-05-13T02:37:05.928Z,7.90
2023-05-13T02:39:33.056Z,7.90
2023-05-13T02:42:00.412Z,7.80
2023-05-13T02:44:27.386Z,7.80
2023-05-13T02:46:54.366Z,7.80
2023-05-13T02:49:21.376Z,7.80
2023-05-13T02:51:48.550Z,7.70
2023-05-13T02:54:15.491Z,7.70
2023-05-13T02:56:42.426Z,7.70
2023-05-13T02:59:09.376Z,7.70
2023-05-13T03:01:36.412Z,7.70
2023-05-13T03:04:03.501Z,7.70
2023-05-13T03:06:32.231Z,7.70
2023-05-13T03:08:59.160Z,7.70
2023-05-13T03:11:26.896Z,7.70
2023-05-13T03:13:53.945Z,7.70
2023-05-13T03:16:21.129Z,7.70
2023-05-13T03:18:49.282Z,7.70
2023-05-13T03:21:16.305Z,7.60
2023-05-13T03:23:43.393Z,7.60
2023-05-13T03:26:10.378Z,7.60
2023-05-13T03:28:37.367Z,7.60
2023-05-13T03:31:04.505Z,7.60
2023-05-13T03:33:31.770Z,7.60
2023-05-13T03:35:58.669Z,7.70
2023-05-13T03:38:26.675Z,7.70
2023-05-13T03:40:53.802Z,7.60
2023-05-13T03:43:20.862Z,7.60
2023-05-13T03:45:49.015Z,7.70
2023-05-13T03:48:16.164Z,7.60
2023-05-13T03:50:43.243Z,7.60
2023-05-13T03:53:11.962Z,7.60
2023-05-13T03:55:39.293Z,7.60
2023-05-13T03:58:14.384Z,7.60
2023-05-13T04:00:42.466Z,7.60
2023-05-13T04:03:10.801Z,7.70
2023-05-13T04:05:37.993Z,7.70
2023-05-13T04:08:05.393Z,7.70
2023-05-13T04:10:32.340Z,7.70
2023-05-13T04:12:59.376Z,7.70
2023-05-13T04:15:26.609Z,7.70
2023-05-13T04:17:54.094Z,7.60
2023-05-13T04:20:21.497Z,7.70
2023-05-13T04:22:49.145Z,7.70
2023-05-13T04:25:17.332Z,7.60
2023-05-13T04:27:44.542Z,7.60
2023-05-13T04:30:13.815Z,7.60
2023-05-13T04:32:40.901Z,7.60
2023-05-13T04:35:08.914Z,7.70
2023-05-13T04:37:35.979Z,7.70
2023-05-13T04:40:03.220Z,7.70
2023-05-13T04:42:30.329Z,7.80
2023-05-13T04:44:57.613Z,7.80
2023-05-13T04:47:24.663Z,7.80
2023-05-13T04:49:51.976Z,7.80
2023-05-13T04:52:19.777Z,7.80
2023-05-13T04:54:47.898Z,7.90
2023-05-13T04:57:15.919Z,7.90
2023-05-13T04:59:42.904Z,8.00
2023-05-13T05:02:09.894Z,8.00
2023-05-13T05:04:36.912Z,8.00
2023-05-13T05:07:04.168Z,8.10
2023-05-13T05:09:31.112Z,8.10
2023-05-13T05:11:58.113Z,8.20
2023-05-13T05:14:25.221Z,8.20
2023-05-13T05:16:52.686Z,8.20
2023-05-13T05:19:24.184Z,8.20
2023-05-13T05:21:54.518Z,8.30
2023-05-13T05:24:21.562Z,8.20
2023-05-13T05:26:48.574Z,8.30
2023-05-13T05:29:15.510Z,8.30
2023-05-13T05:31:42.662Z,8.30
2023-05-13T05:34:09.929Z,8.30
2023-05-13T05:36:38.324Z,8.30
2023-05-13T05:39:06.049Z,8.30
2023-05-13T05:41:33.817Z,8.40
2023-05-13T05:44:00.817Z,8.40
2023-05-13T05:46:27.975Z,8.50
2023-05-13T05:48:54.945Z,8.60
2023-05-13T05:51:21.908Z,8.60
2023-05-13T05:53:48.969Z,8.70
2023-05-13T05:56:16.170Z,8.80
2023-05-13T05:58:43.122Z,8.90
2023-05-13T06:01:10.062Z,9.00
2023-05-13T06:03:37.090Z,9.00
2023-05-13T06:06:04.289Z,9.10
2023-05-13T06:08:31.347Z,9.00
2023-05-13T06:10:59.148Z,9.00
2023-05-13T06:13:26.449Z,9.00
2023-05-13T06:15:53.520Z,9.00
2023-05-13T06:18:20.696Z,9.10
2023-05-13T06:20:48.029Z,9.10
2023-05-13T06:23:15.227Z,9.20
2023-05-13T06:25:42.531Z,9.30
2023-05-13T06:28:12.509Z,9.30
2023-05-13T06:30:39.533Z,9.30
2023-05-13T06:33:08.498Z,9.30
2023-05-13T06:35:35.522Z,9.30
2023-05-13T06:38:02.533Z,9.30
2023-05-13T06:40:29.968Z,9.40
2023-05-13T06:42:56.888Z,9.50
2023-05-13T06:45:25.974Z,9.60
2023-05-13T06:47:54.025Z,9.60
2023-05-13T06:50:21.440Z,9.60
2023-05-13T06:52:48.911Z,9.60
2023-05-13T06:55:16.923Z,9.60
2023-05-13T06:57:46.880Z,9.70
2023-05-13T07:00:15.083Z,9.70
2023-05-13T07:02:42.249Z,9.80
2023-05-13T07:05:11.656Z,9.90
2023-05-13T07:07:39.082Z,9.90
2023-05-13T07:10:06.446Z,10.00
2023-05-13T07:12:33.784Z,10.00
2023-05-13T07:15:01.303Z,10.00
2023-05-13T07:17:28.600Z,9.90
2023-05-13T07:19:55.766Z,9.80
2023-05-13T07:22:22.958Z,9.80
2023-05-13T07:24:50.076Z,9.80
2023-05-13T07:27:17.174Z,9.70
2023-05-13T07:29:44.304Z,9.70
2023-05-13T07:32:11.433Z,9.60
2023-05-13T07:34:38.707Z,9.50
2023-05-13T07:37:08.278Z,9.60
2023-05-13T07:39:35.552Z,9.70
2023-05-13T07:42:03.567Z,9.80
2023-05-13T07:44:30.715Z,9.90
2023-05-13T07:46:57.751Z,10.00
2023-05-13T07:49:24.825Z,10.00
2023-05-13T07:51:52.096Z,10.10
2023-05-13T07:54:19.169Z,10.00
2023-05-13T07:56:48.114Z,10.00
2023-05-13T07:59:15.160Z,10.10
2023-05-13T08:01:43.718Z,10.20
2023-05-13T08:04:11.097Z,10.10
2023-05-13T08:06:38.231Z,10.10
2023-05-13T08:09:05.506Z,10.00
2023-05-13T08:11:32.735Z,10.10
2023-05-13T08:13:59.797Z,10.10
2023-05-13T08:16:27.060Z,10.10
2023-05-13T08:18:54.150Z,10.00
2023-05-13T08:21:21.209Z,10.00
2023-05-13T08:23:51.211Z,10.10
2023-05-13T08:26:18.360Z,10.00
2023-05-13T08:28:45.735Z,10.00
2023-05-13T08:31:13.249Z,10.10
2023-05-13T08:33:42.085Z,10.10
2023-05-13T08:36:09.782Z,10.20
2023-05-13T08:38:36.707Z,10.30
2023-05-13T08:41:06.875Z,10.50
2023-05-13T08:43:34.435Z,10.60
2023-05-13T08:46:05.991Z,10.90
2023-05-13T08:48:34.077Z,11.00
2023-05-13T08:51:04.530Z,11.00
2023-05-13T08:53:31.968Z,11.10
2023-05-13T08:56:00.473Z,11.10
2023-05-13T08:58:28.202Z,11.20
2023-05-13T09:00:56.553Z,11.30
2023-05-13T09:03:24.480Z,11.40
2023-05-13T09:05:51.634Z,11.40
2023-05-13T09:08:18.713Z,11.40
2023-05-13T09:10:46.908Z,11.30
2023-05-13T09:13:14.438Z,11.30
2023-05-13T09:15:45.158Z,11.20
2023-05-13T09:18:12.893Z,11.20
2023-05-13T09:20:39.926Z,11.30
2023-05-13T09:23:09.346Z,11.20
2023-05-13T09:25:38.621Z,11.40
2023-05-13T09:28:08.079Z,11.40
2023-05-13T09:30:46.226Z,11.50
2023-05-13T09:33:20.214Z,11.60
2023-05-13T09:35:53.222Z,11.80
2023-05-13T09:38:25.356Z,11.90
2023-05-13T09:40:57.580Z,12.00
2023-05-13T09:43:27.169Z,12.10
2023-05-13T09:46:00.854Z,12.10
2023-05-13T09:48:30.093Z,12.10
2023-05-13T09:51:00.096Z,12.30
2023-05-13T09:53:28.006Z,12.40
2023-05-13T09:55:57.789Z,12.30
2023-05-13T09:58:28.541Z,12.30
2023-05-13T10:00:57.409Z,12.20
2023-05-13T10:03:27.913Z,12.10
2023-05-13T10:05:55.398Z,11.90
2023-05-13T10:08:23.712Z,11.80
2023-05-13T10:10:53.942Z,11.70
2023-05-13T10:13:25.264Z,11.60
2023-05-13T10:15:56.116Z,11.50
2023-05-13T10:18:24.407Z,11.40
2023-05-13T10:20:53.929Z,11.40
2023-05-13T10:23:24.498Z,11.40
2023-05-13T10:25:53.545Z,11.40
2023-05-13T10:28:21.390Z,11.50
2023-05-13T10:30:51.294Z,11.60
2023-05-13T10:33:19.062Z,11.60
2023-05-13T10:36:21.756Z,11.70
2023-05-13T10:39:25.430Z,11.50
2023-05-13T10:42:29.979Z,11.40
2023-05-13T10:44:58.516Z,11.40
2023-05-13T10:47:26.700Z,11.50
2023-05-13T10:49:54.211Z,11.60
2023-05-13T10:52:21.601Z,11.90
2023-05-13T10:55:04.136Z,12.20
2023-05-13T10:57:37.091Z,12.40
2023-05-13T11:00:18.073Z,12.50
2023-05-13T11:02:45.209Z,12.60
2023-05-13T11:05:21.316Z,12.40
2023-05-13T11:07:58.019Z,12.30
2023-05-13T11:10:31.851Z,12.20
2023-05-13T11:13:09.476Z,12.10
2023-05-13T11:15:46.454Z,12.00
2023-05-13T11:18:13.795Z,12.00
2023-05-13T11:20:51.565Z,11.90
2023-05-13T11:23:22.696Z,11.90
2023-05-13T11:26:19.090Z,11.90
2023-05-13T11:29:08.904Z,11.80
2023-05-13T11:31:49.484Z,11.70
2023-05-13T11:34:20.593Z,11.70
2023-05-13T11:36:50.019Z,11.70
2023-05-13T11:39:22.690Z,11.70
2023-05-13T11:41:51.843Z,11.60
2023-05-13T11:44:20.992Z,11.60
2023-05-13T11:46:59.665Z,11.50
2023-05-13T11:49:40.287Z,11.40
2023-05-13T11:52:18.822Z,11.40
2023-05-13T11:54:49.706Z,11.20
2023-05-13T11:57:20.411Z,11.00
2023-05-13T11:59:55.094Z,11.00
2023-05-13T12:02:27.871Z,10.90
2023-05-13T12:04:56.045Z,11.00
2023-05-13T12:07:24.788Z,11.00
2023-05-13T12:09:53.561Z,11.00
2023-05-13T12:12:20.992Z,10.90
2023-05-13T12:14:50.507Z,11.00
2023-05-13T12:17:19.162Z,11.00
2023-05-13T12:20:05.954Z,11.00
2023-05-13T12:22:33.985Z,11.10
2023-05-13T12:25:21.626Z,11.30
2023-05-13T12:27:53.261Z,11.50
2023-05-13T12:30:20.266Z,12.00
2023-05-13T12:32:47.649Z,12.20
2023-05-13T12:35:15.209Z,12.20
2023-05-13T12:37:42.362Z,12.20
2023-05-13T12:40:13.631Z,12.20
2023-05-13T12:42:45.758Z,12.30
2023-05-13T12:45:13.033Z,12.30
2023-05-13T12:47:53.105Z,12.40
2023-05-13T12:50:20.161Z,12.60
2023-05-13T12:52:47.074Z,12.70
2023-05-13T12:55:14.197Z,12.80
2023-05-13T12:57:44.819Z,12.80
2023-05-13T13:00:12.705Z,12.80
2023-05-13T13:02:41.306Z,12.70
2023-05-13T13:05:08.969Z,12.50
2023-05-13T13:07:36.541Z,12.30
2023-05-13T13:10:05.209Z,12.20
2023-05-13T13:12:32.194Z,12.10
2023-05-13T13:14:59.291Z,12.10
2023-05-13T13:17:26.318Z,12.20
2023-05-13T13:19:53.257Z,12.40
2023-05-13T13:22:20.490Z,12.60
2023-05-13T13:24:47.526Z,12.80
2023-05-13T13:27:14.489Z,12.80
2023-05-13T13:29:41.490Z,12.70
2023-05-13T13:32:08.613Z,12.60
2023-05-13T13:34:35.748Z,12.40
2023-05-13T13:37:03.168Z,12.30
2023-05-13T13:39:30.188Z,12.20
2023-05-13T13:41:57.661Z,12.20
2023-05-13T13:44:24.772Z,12.10
2023-05-13T13:46:52.588Z,12.10
2023-05-13T13:49:23.953Z,12.10
2023-05-13T13:51:54.088Z,12.20
2023-05-13T13:54:21.130Z,12.30
2023-05-13T13:56:48.561Z,12.30
2023-05-13T13:59:15.561Z,12.50
2023-05-13T14:01:44.101Z,12.50
2023-05-13T14:04:16.600Z,12.50
2023-05-13T14:06:45.345Z,12.50
2023-05-13T14:09:12.760Z,12.70
2023-05-13T14:11:40.093Z,12.80
2023-05-13T14:14:07.240Z,13.00
2023-05-13T14:16:34.414Z,13.10
2023-05-13T14:19:01.338Z,13.20
2023-05-13T14:21:28.381Z,13.10
2023-05-13T14:23:55.609Z,13.00
2023-05-13T14:26:22.785Z,12.90
2023-05-13T14:28:51.235Z,12.90
2023-05-13T14:31:18.279Z,13.00
2023-05-13T14:33:45.394Z,13.00
2023-05-13T14:36:16.175Z,13.30
2023-05-13T14:38:44.449Z,13.70
2023-05-13T14:41:12.381Z,14.00
2023-05-13T14:43:39.352Z,14.30
2023-05-13T14:46:06.363Z,14.60
2023-05-13T14:48:35.040Z,14.90
2023-05-13T14:51:03.312Z,15.00
2023-05-13T14:53:30.391Z,15.20
2023-05-13T14:55:57.483Z,15.50
2023-05-13T14:58:24.633Z,15.50
2023-05-13T15:00:51.706Z,15.60
2023-05-13T15:03:18.806Z,15.80
2023-05-13T15:05:47.018Z,15.90
2023-05-13T15:08:14.073Z,15.90
2023-05-13T15:10:41.042Z,15.80
2023-05-13T15:13:08.601Z,15.90
2023-05-13T15:15:35.683Z,15.90
2023-05-13T15:18:02.642Z,15.70
2023-05-13T15:20:29.688Z,15.40
2023-05-13T15:22:57.865Z,15.10
2023-05-13T15:25:24.819Z,14.80
2023-05-13T15:27:51.986Z,14.70
2023-05-13T15:30:19.137Z,14.40
2023-05-13T15:32:46.133Z,14.20
2023-05-13T15:35:14.829Z,14.10
2023-05-13T15:37:42.781Z,14.00
2023-05-13T15:40:10.314Z,13.90
2023-05-13T15:42:37.792Z,13.80
2023-05-13T15:45:05.262Z,13.90
2023-05-13T15:47:32.306Z,13.80
2023-05-13T15:49:59.306Z,13.90
2023-05-13T15:52:26.303Z,14.00
2023-05-13T15:54:53.411Z,14.00
2023-05-13T15:57:20.473Z,14.00
2023-05-13T15:59:47.447Z,14.00
2023-05-13T16:02:14.471Z,14.10
2023-05-13T16:04:41.883Z,14.20
2023-05-13T16:07:11.093Z,14.20
2023-05-13T16:09:39.404Z,14.20
2023-05-13T16:12:06.946Z,14.10
2023-05-13T16:14:35.095Z,14.20
2023-05-13T16:17:03.428Z,14.30
2023-05-13T16:19:30.366Z,14.60
2023-05-13T16:21:57.302Z,14.90
2023-05-13T16:24:24.272Z,15.40
2023-05-13T16:26:51.270Z,16.10
2023-05-13T16:29:19.534Z,17.00
2023-05-13T16:31:46.504Z,17.80
2023-05-13T16:34:13.568Z,18.40
2023-05-13T16:36:40.530Z,19.00
2023-05-13T16:39:07.741Z,19.60
2023-05-13T16:41:35.783Z,19.90
2023-05-13T16:44:05.098Z,19.90
2023-05-13T16:46:35.567Z,20.00
2023-05-13T16:49:02.938Z,19.50
2023-05-13T16:51:29.925Z,18.80
2023-05-13T16:53:56.892Z,17.90
2023-05-13T16:56:26.341Z,17.20
2023-05-13T16:58:53.335Z,16.50
2023-05-13T17:01:20.389Z,16.00
2023-05-13T17:03:47.441Z,15.50
2023-05-13T17:06:14.396Z,15.00
2023-05-13T17:08:41.501Z,14.60
2023-05-13T17:11:15.935Z,14.30
2023-05-13T17:13:43.390Z,13.90
2023-05-13T17:16:11.278Z,13.70
2023-05-13T17:18:38.268Z,13.40
2023-05-13T17:21:05.505Z,13.20
2023-05-13T17:23:36.290Z,13.10
2023-05-13T17:26:03.700Z,13.10
2023-05-13T17:28:31.064Z,13.20
2023-05-13T17:30:58.075Z,13.20
2023-05-13T17:33:26.376Z,13.40
2023-05-13T17:35:53.337Z,13.60
2023-05-13T17:38:20.320Z,13.80
2023-05-13T17:40:47.319Z,13.90
2023-05-13T17:43:14.652Z,13.80
2023-05-13T17:45:42.645Z,13.80
2023-05-13T17:48:09.813Z,13.60
2023-05-13T17:50:37.430Z,13.30
2023-05-13T17:53:04.529Z,12.80
2023-05-13T17:55:31.596Z,12.40
2023-05-13T17:57:59.904Z,11.90
2023-05-13T18:00:30.080Z,11.60
2023-05-13T18:02:57.128Z,11.30
2023-05-13T18:05:24.318Z,11.00
2023-05-13T18:07:51.448Z,10.80
2023-05-13T18:10:18.557Z,10.70
2023-05-13T18:12:45.884Z,10.60
2023-05-13T18:15:13.710Z,10.50
2023-05-13T18:17:40.659Z,10.40
2023-05-13T18:20:08.500Z,10.50
2023-05-13T18:22:35.590Z,10.40
2023-05-13T18:25:03.062Z,10.40
2023-05-13T18:27:30.053Z,10.40
2023-05-13T18:29:57.264Z,10.30
2023-05-13T18:32:24.440Z,10.30
2023-05-13T18:34:51.871Z,10.30
2023-05-13T18:37:18.961Z,10.30
2023-05-13T18:39:48.769Z,10.30
2023-05-13T18:42:15.869Z,10.20
2023-05-13T18:44:42.895Z,10.20
2023-05-13T18:47:11.129Z,10.20
2023-05-13T18:49:38.679Z,10.20
2023-05-13T18:52:06.310Z,10.10
2023-05-13T18:54:33.418Z,10.10
2023-05-13T18:57:01.149Z,10.10
2023-05-13T18:59:28.693Z,10.10
2023-05-13T19:01:55.850Z,10.00
2023-05-13T19:04:23.663Z,10.00
2023-05-13T19:06:51.677Z,9.90
2023-05-13T19:09:18.757Z,9.90
2023-05-13T19:11:45.788Z,9.80
2023-05-13T19:14:13.753Z,9.80
2023-05-13T19:16:40.849Z,9.70
2023-05-13T19:19:07.897Z,9.70
2023-05-13T19:21:35.069Z,9.70
2023-05-13T19:24:03.437Z,9.60
2023-05-13T19:26:30.909Z,9.70
2023-05-13T19:28:58.098Z,9.70
2023-05-13T19:31:27.556Z,9.70
2023-05-13T19:33:55.064Z,9.70
2023-05-13T19:36:26.257Z,9.70
2023-05-13T19:38:53.957Z,9.70
2023-05-13T19:41:21.231Z,9.80
2023-05-13T19:43:48.276Z,9.80
2023-05-13T19:46:15.794Z,9.80
2023-05-13T19:48:43.204Z,9.90
2023-05-13T19:51:11.319Z,9.90
2023-05-13T19:53:38.392Z,10.00
2023-05-13T19:56:05.626Z,10.00
2023-05-13T19:58:32.609Z,10.00
2023-05-13T20:00:59.570Z,10.10
2023-05-13T20:03:27.126Z,10.10
2023-05-13T20:05:55.525Z,10.10
2023-05-13T20:08:23.011Z,10.10
2023-05-13T20:10:50.085Z,10.10
2023-05-13T20:13:17.210Z,10.10
2023-05-13T20:15:44.184Z,10.10
2023-05-13T20:18:11.583Z,10.10
2023-05-13T20:20:38.993Z,10.10
2023-05-13T20:23:06.132Z,10.10
2023-05-13T20:25:33.267Z,10.10
2023-05-13T20:28:00.249Z,10.10
2023-05-13T20:30:27.165Z,10.10
2023-05-13T20:32:54.178Z,10.10
2023-05-13T20:35:21.333Z,10.10
2023-05-13T20:37:48.399Z,10.10
2023-05-13T20:40:15.764Z,10.10
2023-05-13T20:42:42.805Z,10.00
2023-05-13T20:45:11.024Z,10.00
2023-05-13T20:47:37.969Z,10.00
2023-05-13T20:50:05.345Z,10.00
2023-05-13T20:52:32.316Z,9.90
2023-05-13T20:55:00.751Z,9.90
2023-05-13T20:57:28.092Z,9.90
2023-05-13T20:59:55.624Z,9.90
2023-05-13T21:02:23.043Z,9.90
2023-05-13T21:04:50.053Z,9.90
2023-05-13T21:07:18.088Z,9.90
2023-05-13T21:09:46.367Z,9.90
2023-05-13T21:12:13.388Z,9.90
2023-05-13T21:14:41.640Z,9.90
2023-05-13T21:17:08.986Z,9.90
2023-05-13T21:19:37.029Z,9.90
2023-05-13T21:22:05.991Z,9.90
2023-05-13T21:24:33.115Z,9.80
2023-05-13T21:27:00.286Z,9.80
2023-05-13T21:29:27.430Z,9.80
2023-05-13T21:31:54.773Z,9.80
2023-05-13T21:34:21.889Z,9.70
2023-05-13T21:36:49.020Z,9.70
2023-05-13T21:39:16.147Z,9.70
2023-05-13T21:41:44.627Z,9.70
2023-05-13T21:44:11.579Z,9.60
2023-05-13T21:46:38.593Z,9.60
2023-05-13T21:49:05.731Z,9.60
2023-05-13T21:51:32.943Z,9.60
2023-05-13T21:53:59.845Z,9.50
2023-05-13T21:56:27.164Z,9.40
2023-05-13T21:58:54.584Z,9.40
2023-05-13T22:01:21.659Z,9.40
2023-05-13T22:03:48.808Z,9.40
2023-05-13T22:06:15.851Z,9.30
2023-05-13T22:08:42.787Z,9.30
2023-05-13T22:11:09.765Z,9.30
2023-05-13T22:13:37.175Z,9.30
2023-05-13T22:16:04.677Z,9.30
2023-05-13T22:18:31.806Z,9.30
2023-05-13T22:21:00.856Z,9.20
2023-05-13T22:23:28.199Z,9.30
2023-05-13T22:25:55.167Z,9.20
2023-05-13T22:28:22.555Z,9.20
2023-05-13T22:30:52.601Z,9.30
2023-05-13T22:33:19.689Z,9.30
2023-05-13T22:35:47.354Z,9.30
2023-05-13T22:38:14.326Z,9.30
2023-05-13T22:40:42.616Z,9.30
2023-05-13T22:43:09.664Z,9.30
2023-05-13T22:45:37.735Z,9.30
2023-05-13T22:48:04.790Z,9.20
2023-05-13T22:50:32.149Z,9.20
2023-05-13T22:52:59.261Z,9.20
2023-05-13T22:55:26.253Z,9.20
2023-05-13T22:57:53.228Z,9.20
2023-05-13T23:00:20.233Z,9.20
2023-05-13T23:02:47.434Z,9.10
2023-05-13T23:05:14.588Z,9.10
2023-05-13T23:07:41.802Z,9.10
2023-05-13T23:10:09.273Z,9.10
2023-05-13T23:12:37.232Z,9.00
2023-05-13T23:15:05.049Z,9.00
2023-05-13T23:17:33.022Z,9.00
2023-05-13T23:20:00.160Z,8.90
2023-05-13T23:22:27.107Z,8.90
2023-05-13T23:24:56.602Z,8.90
2023-05-13T23:27:24.930Z,8.90
2023-05-13T23:29:51.984Z,8.90
2023-05-13T23:32:19.377Z,8.90
2023-05-13T23:34:46.405Z,8.80
2023-05-13T23:37:15.743Z,8.80
2023-05-13T23:39:42.733Z,8.80
2023-05-13T23:42:09.802Z,8.80
2023-05-13T23:44:37.343Z,8.90
2023-05-13T23:47:04.885Z,8.90
2023-05-13T23:49:33.439Z,8.90
2023-05-13T23:52:00.453Z,8.90
2023-05-13T23:54:27.468Z,8.90
2023-05-13T23:56:54.442Z,8.80
2023-05-13T23:59:21.412Z,8.80
